sensor_id;sensor_type;location;lat;lon;timestamp;pressure;altitude;pressure_sealevel;temperature
56286;BMP180;42191;47.562;9.686;2023-02-05T00:02:18;98694.00;;;7.50
56286;BMP180;42191;47.562;9.686;2023-02-05T00:04:44;98685.00;;;7.40
56286;BMP180;42191;47.562;9.686;2023-02-05T00:07:11;98687.00;;;7.40
56286;BMP180;42191;47.562;9.686;2023-02-05T00:09:37;98687.00;;;7.30
56286;BMP180;42191;47.562;9.686;2023-02-05T00:12:06;98701.00;;;7.20
56286;BMP180;42191;47.562;9.686;2023-02-05T00:14:32;98691.00;;;7.20
56286;BMP180;42191;47.562;9.686;2023-02-05T00:16:58;98704.00;;;7.10
56286;BMP180;42191;47.562;9.686;2023-02-05T00:19:24;98706.00;;;7.10
56286;BMP180;42191;47.562;9.686;2023-02-05T00:21:51;98692.00;;;7.00
56286;BMP180;42191;47.562;9.686;2023-02-05T00:24:17;98697.00;;;7.00
56286;BMP180;42191;47.562;9.686;2023-02-05T00:26:43;98694.00;;;7.00
56286;BMP180;42191;47.562;9.686;2023-02-05T00:29:09;98688.00;;;6.90
56286;BMP180;42191;47.562;9.686;2023-02-05T00:31:35;98689.00;;;6.90
56286;BMP180;42191;47.562;9.686;2023-02-05T00:34:01;98688.00;;;6.90
56286;BMP180;42191;47.562;9.686;2023-02-05T00:36:27;98675.00;;;6.90
56286;BMP180;42191;47.562;9.686;2023-02-05T00:38:54;98679.00;;;6.90
56286;BMP180;42191;47.562;9.686;2023-02-05T00:41:20;98677.00;;;6.80
56286;BMP180;42191;47.562;9.686;2023-02-05T00:43:46;98671.00;;;6.80
56286;BMP180;42191;47.562;9.686;2023-02-05T00:46:13;98681.00;;;6.80
56286;BMP180;42191;47.562;9.686;2023-02-05T00:48:40;98679.00;;;6.80
56286;BMP180;42191;47.562;9.686;2023-02-05T00:51:07;98683.00;;;6.70
56286;BMP180;42191;47.562;9.686;2023-02-05T00:53:33;98676.00;;;6.70
56286;BMP180;42191;47.562;9.686;2023-02-05T00:56:00;98685.00;;;6.60
56286;BMP180;42191;47.562;9.686;2023-02-05T00:58:26;98691.00;;;6.60
56286;BMP180;42191;47.562;9.686;2023-02-05T01:00:52;98672.00;;;6.60
56286;BMP180;42191;47.562;9.686;2023-02-05T01:03:19;98681.00;;;6.50
56286;BMP180;42191;47.562;9.686;2023-02-05T01:05:45;98684.00;;;6.50
56286;BMP180;42191;47.562;9.686;2023-02-05T01:08:12;98683.00;;;6.40
56286;BMP180;42191;47.562;9.686;2023-02-05T01:10:43;98680.00;;;6.40
56286;BMP180;42191;47.562;9.686;2023-02-05T01:13:09;98670.00;;;6.40
56286;BMP180;42191;47.562;9.686;2023-02-05T01:15:35;98669.00;;;6.40
56286;BMP180;42191;47.562;9.686;2023-02-05T01:18:01;98670.00;;;6.30
56286;BMP180;42191;47.562;9.686;2023-02-05T01:20:27;98671.00;;;6.30
56286;BMP180;42191;47.562;9.686;2023-02-05T01:22:54;98682.00;;;6.20
56286;BMP180;42191;47.562;9.686;2023-02-05T01:25:20;98677.00;;;6.20
56286;BMP180;42191;47.562;9.686;2023-02-05T01:27:46;98675.00;;;6.10
56286;BMP180;42191;47.562;9.686;2023-02-05T01:30:12;98678.00;;;6.10
56286;BMP180;42191;47.562;9.686;2023-02-05T01:32:39;98682.00;;;6.10
56286;BMP180;42191;47.562;9.686;2023-02-05T01:35:07;98675.00;;;6.00
56286;BMP180;42191;47.562;9.686;2023-02-05T01:37:33;98681.00;;;6.00
56286;BMP180;42191;47.562;9.686;2023-02-05T01:39:59;98677.00;;;6.00
56286;BMP180;42191;47.562;9.686;2023-02-05T01:42:28;98683.00;;;6.00
56286;BMP180;42191;47.562;9.686;2023-02-05T01:47:59;98678.00;;;5.90
56286;BMP180;42191;47.562;9.686;2023-02-05T01:50:35;98675.00;;;5.90
56286;BMP180;42191;47.562;9.686;2023-02-05T01:53:07;98671.00;;;5.90
56286;BMP180;42191;47.562;9.686;2023-02-05T01:58:54;98684.00;;;5.80
56286;BMP180;42191;47.562;9.686;2023-02-05T02:01:21;98680.00;;;5.80
56286;BMP180;42191;47.562;9.686;2023-02-05T02:03:49;98677.00;;;5.80
56286;BMP180;42191;47.562;9.686;2023-02-05T02:06:16;98667.00;;;5.80
56286;BMP180;42191;47.562;9.686;2023-02-05T02:08:42;98659.00;;;5.80
56286;BMP180;42191;47.562;9.686;2023-02-05T02:11:09;98666.00;;;5.80
56286;BMP180;42191;47.562;9.686;2023-02-05T02:13:39;98657.00;;;5.80
56286;BMP180;42191;47.562;9.686;2023-02-05T02:16:07;98656.00;;;5.90
56286;BMP180;42191;47.562;9.686;2023-02-05T02:18:34;98650.00;;;5.90
56286;BMP180;42191;47.562;9.686;2023-02-05T02:24:21;98650.00;;;5.90
56286;BMP180;42191;47.562;9.686;2023-02-05T02:29:35;98652.00;;;5.80
56286;BMP180;42191;47.562;9.686;2023-02-05T02:32:22;98656.00;;;5.80
56286;BMP180;42191;47.562;9.686;2023-02-05T02:35:00;98656.00;;;5.80
56286;BMP180;42191;47.562;9.686;2023-02-05T02:37:41;98648.00;;;5.80
56286;BMP180;42191;47.562;9.686;2023-02-05T02:46:01;98631.00;;;5.60
56286;BMP180;42191;47.562;9.686;2023-02-05T02:48:30;98631.00;;;5.60
56286;BMP180;42191;47.562;9.686;2023-02-05T02:50:58;98632.00;;;5.50
56286;BMP180;42191;47.562;9.686;2023-02-05T02:53:32;98627.00;;;5.50
56286;BMP180;42191;47.562;9.686;2023-02-05T02:56:01;98627.00;;;5.50
56286;BMP180;42191;47.562;9.686;2023-02-05T02:58:34;98619.00;;;5.40
56286;BMP180;42191;47.562;9.686;2023-02-05T03:01:04;98619.00;;;5.40
56286;BMP180;42191;47.562;9.686;2023-02-05T03:03:36;98621.00;;;5.40
56286;BMP180;42191;47.562;9.686;2023-02-05T03:06:04;98621.00;;;5.40
56286;BMP180;42191;47.562;9.686;2023-02-05T03:08:39;98615.00;;;5.40
56286;BMP180;42191;47.562;9.686;2023-02-05T03:11:12;98626.00;;;5.50
56286;BMP180;42191;47.562;9.686;2023-02-05T03:13:40;98607.00;;;5.40
56286;BMP180;42191;47.562;9.686;2023-02-05T03:16:07;98611.00;;;5.50
56286;BMP180;42191;47.562;9.686;2023-02-05T03:18:34;98603.00;;;5.50
56286;BMP180;42191;47.562;9.686;2023-02-05T03:21:04;98600.00;;;5.50
56286;BMP180;42191;47.562;9.686;2023-02-05T03:23:30;98600.00;;;5.50
56286;BMP180;42191;47.562;9.686;2023-02-05T03:25:57;98595.00;;;5.50
56286;BMP180;42191;47.562;9.686;2023-02-05T03:28:23;98575.00;;;5.50
56286;BMP180;42191;47.562;9.686;2023-02-05T03:30:59;98584.00;;;5.50
56286;BMP180;42191;47.562;9.686;2023-02-05T03:41:47;98572.00;;;5.20
56286;BMP180;42191;47.562;9.686;2023-02-05T03:47:08;98565.00;;;5.10
56286;BMP180;42191;47.562;9.686;2023-02-05T03:52:13;98563.00;;;5.00
56286;BMP180;42191;47.562;9.686;2023-02-05T03:54:51;98570.00;;;5.00
56286;BMP180;42191;47.562;9.686;2023-02-05T03:57:24;98577.00;;;5.00
56286;BMP180;42191;47.562;9.686;2023-02-05T03:59:53;98585.00;;;4.90
56286;BMP180;42191;47.562;9.686;2023-02-05T04:02:21;98578.00;;;4.90
56286;BMP180;42191;47.562;9.686;2023-02-05T04:04:48;98560.00;;;4.90
56286;BMP180;42191;47.562;9.686;2023-02-05T04:07:14;98571.00;;;4.90
56286;BMP180;42191;47.562;9.686;2023-02-05T04:09:40;98562.00;;;4.90
56286;BMP180;42191;47.562;9.686;2023-02-05T04:12:06;98567.00;;;4.80
56286;BMP180;42191;47.562;9.686;2023-02-05T04:14:32;98568.00;;;4.80
56286;BMP180;42191;47.562;9.686;2023-02-05T04:16:58;98560.00;;;4.80
56286;BMP180;42191;47.562;9.686;2023-02-05T04:19:25;98570.00;;;4.80
56286;BMP180;42191;47.562;9.686;2023-02-05T04:21:51;98567.00;;;4.80
56286;BMP180;42191;47.562;9.686;2023-02-05T04:24:17;98587.00;;;4.70
56286;BMP180;42191;47.562;9.686;2023-02-05T04:26:43;98575.00;;;4.70
56286;BMP180;42191;47.562;9.686;2023-02-05T04:29:09;98583.00;;;4.70
56286;BMP180;42191;47.562;9.686;2023-02-05T04:31:35;98577.00;;;4.70
56286;BMP180;42191;47.562;9.686;2023-02-05T04:34:02;98586.00;;;4.70
56286;BMP180;42191;47.562;9.686;2023-02-05T04:36:28;98579.00;;;4.70
56286;BMP180;42191;47.562;9.686;2023-02-05T04:38:54;98572.00;;;4.70
56286;BMP180;42191;47.562;9.686;2023-02-05T04:41:20;98584.00;;;4.70
56286;BMP180;42191;47.562;9.686;2023-02-05T04:43:46;98573.00;;;4.70
56286;BMP180;42191;47.562;9.686;2023-02-05T04:46:12;98583.00;;;4.80
56286;BMP180;42191;47.562;9.686;2023-02-05T04:48:39;98565.00;;;4.80
56286;BMP180;42191;47.562;9.686;2023-02-05T04:51:10;98576.00;;;4.80
56286;BMP180;42191;47.562;9.686;2023-02-05T04:53:37;98573.00;;;4.80
56286;BMP180;42191;47.562;9.686;2023-02-05T04:56:15;98581.00;;;4.80
56286;BMP180;42191;47.562;9.686;2023-02-05T04:58:42;98576.00;;;4.80
56286;BMP180;42191;47.562;9.686;2023-02-05T05:01:13;98581.00;;;4.80
56286;BMP180;42191;47.562;9.686;2023-02-05T05:03:39;98589.00;;;4.80
56286;BMP180;42191;47.562;9.686;2023-02-05T05:06:06;98579.00;;;4.80
56286;BMP180;42191;47.562;9.686;2023-02-05T05:08:32;98570.00;;;4.80
56286;BMP180;42191;47.562;9.686;2023-02-05T05:10:59;98556.00;;;4.80
56286;BMP180;42191;47.562;9.686;2023-02-05T05:13:25;98560.00;;;4.80
56286;BMP180;42191;47.562;9.686;2023-02-05T05:15:55;98563.00;;;4.80
56286;BMP180;42191;47.562;9.686;2023-02-05T05:18:21;98552.00;;;4.80
56286;BMP180;42191;47.562;9.686;2023-02-05T05:20:48;98552.00;;;4.70
56286;BMP180;42191;47.562;9.686;2023-02-05T05:23:14;98559.00;;;4.70
56286;BMP180;42191;47.562;9.686;2023-02-05T05:25:44;98556.00;;;4.70
56286;BMP180;42191;47.562;9.686;2023-02-05T05:28:12;98566.00;;;4.70
56286;BMP180;42191;47.562;9.686;2023-02-05T05:30:39;98582.00;;;4.70
56286;BMP180;42191;47.562;9.686;2023-02-05T05:33:06;98580.00;;;4.70
56286;BMP180;42191;47.562;9.686;2023-02-05T05:35:32;98570.00;;;4.70
56286;BMP180;42191;47.562;9.686;2023-02-05T05:37:59;98579.00;;;4.80
56286;BMP180;42191;47.562;9.686;2023-02-05T05:40:26;98568.00;;;4.80
56286;BMP180;42191;47.562;9.686;2023-02-05T05:43:16;98579.00;;;4.80
56286;BMP180;42191;47.562;9.686;2023-02-05T05:46:01;98573.00;;;4.80
56286;BMP180;42191;47.562;9.686;2023-02-05T05:48:28;98567.00;;;4.80
56286;BMP180;42191;47.562;9.686;2023-02-05T05:50:54;98569.00;;;4.80
56286;BMP180;42191;47.562;9.686;2023-02-05T05:53:21;98571.00;;;4.90
56286;BMP180;42191;47.562;9.686;2023-02-05T05:55:47;98574.00;;;4.90
56286;BMP180;42191;47.562;9.686;2023-02-05T05:58:13;98578.00;;;4.90
56286;BMP180;42191;47.562;9.686;2023-02-05T06:00:40;98569.00;;;4.90
56286;BMP180;42191;47.562;9.686;2023-02-05T06:03:09;98572.00;;;4.90
56286;BMP180;42191;47.562;9.686;2023-02-05T06:05:35;98577.00;;;4.90
56286;BMP180;42191;47.562;9.686;2023-02-05T06:08:01;98582.00;;;5.00
56286;BMP180;42191;47.562;9.686;2023-02-05T06:10:28;98572.00;;;5.00
56286;BMP180;42191;47.562;9.686;2023-02-05T06:12:54;98565.00;;;5.00
56286;BMP180;42191;47.562;9.686;2023-02-05T06:15:21;98582.00;;;5.00
56286;BMP180;42191;47.562;9.686;2023-02-05T06:17:47;98578.00;;;5.00
56286;BMP180;42191;47.562;9.686;2023-02-05T06:20:15;98585.00;;;5.00
56286;BMP180;42191;47.562;9.686;2023-02-05T06:22:41;98586.00;;;5.00
56286;BMP180;42191;47.562;9.686;2023-02-05T06:25:07;98595.00;;;5.00
56286;BMP180;42191;47.562;9.686;2023-02-05T06:27:34;98610.00;;;5.00
56286;BMP180;42191;47.562;9.686;2023-02-05T06:30:00;98598.00;;;5.00
56286;BMP180;42191;47.562;9.686;2023-02-05T06:32:27;98607.00;;;5.10
56286;BMP180;42191;47.562;9.686;2023-02-05T06:34:53;98607.00;;;5.10
56286;BMP180;42191;47.562;9.686;2023-02-05T06:37:19;98619.00;;;5.10
56286;BMP180;42191;47.562;9.686;2023-02-05T06:39:45;98609.00;;;5.10
56286;BMP180;42191;47.562;9.686;2023-02-05T06:42:11;98613.00;;;5.10
56286;BMP180;42191;47.562;9.686;2023-02-05T06:44:37;98602.00;;;5.20
56286;BMP180;42191;47.562;9.686;2023-02-05T06:47:03;98613.00;;;5.20
56286;BMP180;42191;47.562;9.686;2023-02-05T06:49:29;98620.00;;;5.20
56286;BMP180;42191;47.562;9.686;2023-02-05T06:51:55;98623.00;;;5.20
56286;BMP180;42191;47.562;9.686;2023-02-05T06:54:22;98630.00;;;5.20
56286;BMP180;42191;47.562;9.686;2023-02-05T06:56:48;98620.00;;;5.30
56286;BMP180;42191;47.562;9.686;2023-02-05T06:59:15;98626.00;;;5.30
56286;BMP180;42191;47.562;9.686;2023-02-05T07:01:41;98643.00;;;5.30
56286;BMP180;42191;47.562;9.686;2023-02-05T07:04:07;98634.00;;;5.40
56286;BMP180;42191;47.562;9.686;2023-02-05T07:06:33;98643.00;;;5.40
56286;BMP180;42191;47.562;9.686;2023-02-05T07:08:59;98638.00;;;5.40
56286;BMP180;42191;47.562;9.686;2023-02-05T07:11:25;98633.00;;;5.50
56286;BMP180;42191;47.562;9.686;2023-02-05T07:13:51;98634.00;;;5.50
56286;BMP180;42191;47.562;9.686;2023-02-05T07:16:17;98623.00;;;5.60
56286;BMP180;42191;47.562;9.686;2023-02-05T07:18:44;98626.00;;;5.60
56286;BMP180;42191;47.562;9.686;2023-02-05T07:21:13;98620.00;;;5.70
56286;BMP180;42191;47.562;9.686;2023-02-05T07:23:41;98604.00;;;5.70
56286;BMP180;42191;47.562;9.686;2023-02-05T07:26:09;98615.00;;;5.80
56286;BMP180;42191;47.562;9.686;2023-02-05T07:28:36;98620.00;;;5.80
56286;BMP180;42191;47.562;9.686;2023-02-05T07:31:09;98617.00;;;5.90
56286;BMP180;42191;47.562;9.686;2023-02-05T07:33:35;98615.00;;;5.90
56286;BMP180;42191;47.562;9.686;2023-02-05T07:36:06;98626.00;;;5.90
56286;BMP180;42191;47.562;9.686;2023-02-05T07:38:34;98625.00;;;5.90
56286;BMP180;42191;47.562;9.686;2023-02-05T07:41:04;98623.00;;;5.90
56286;BMP180;42191;47.562;9.686;2023-02-05T07:43:30;98623.00;;;5.90
56286;BMP180;42191;47.562;9.686;2023-02-05T07:46:04;98628.00;;;5.90
56286;BMP180;42191;47.562;9.686;2023-02-05T07:48:31;98631.00;;;5.90
56286;BMP180;42191;47.562;9.686;2023-02-05T07:50:57;98627.00;;;6.00
56286;BMP180;42191;47.562;9.686;2023-02-05T07:53:23;98631.00;;;6.00
56286;BMP180;42191;47.562;9.686;2023-02-05T07:55:49;98642.00;;;6.10
56286;BMP180;42191;47.562;9.686;2023-02-05T07:58:16;98643.00;;;6.10
56286;BMP180;42191;47.562;9.686;2023-02-05T08:00:42;98636.00;;;6.10
56286;BMP180;42191;47.562;9.686;2023-02-05T08:03:09;98646.00;;;6.20
56286;BMP180;42191;47.562;9.686;2023-02-05T08:05:36;98646.00;;;6.20
56286;BMP180;42191;47.562;9.686;2023-02-05T08:08:03;98658.00;;;6.30
56286;BMP180;42191;47.562;9.686;2023-02-05T08:10:29;98656.00;;;6.30
56286;BMP180;42191;47.562;9.686;2023-02-05T08:12:55;98669.00;;;6.40
56286;BMP180;42191;47.562;9.686;2023-02-05T08:15:21;98654.00;;;6.50
56286;BMP180;42191;47.562;9.686;2023-02-05T08:17:47;98665.00;;;6.50
56286;BMP180;42191;47.562;9.686;2023-02-05T08:20:13;98660.00;;;6.60
56286;BMP180;42191;47.562;9.686;2023-02-05T08:22:42;98650.00;;;6.70
56286;BMP180;42191;47.562;9.686;2023-02-05T08:25:12;98648.00;;;6.80
56286;BMP180;42191;47.562;9.686;2023-02-05T08:27:39;98641.00;;;6.90
56286;BMP180;42191;47.562;9.686;2023-02-05T08:30:11;98650.00;;;7.00
56286;BMP180;42191;47.562;9.686;2023-02-05T08:32:38;98652.00;;;7.10
56286;BMP180;42191;47.562;9.686;2023-02-05T08:35:04;98656.00;;;7.10
56286;BMP180;42191;47.562;9.686;2023-02-05T08:37:31;98656.00;;;7.20
56286;BMP180;42191;47.562;9.686;2023-02-05T08:39:57;98652.00;;;7.30
56286;BMP180;42191;47.562;9.686;2023-02-05T08:42:23;98651.00;;;7.40
56286;BMP180;42191;47.562;9.686;2023-02-05T08:44:50;98656.00;;;7.40
56286;BMP180;42191;47.562;9.686;2023-02-05T08:47:20;98663.00;;;7.50
56286;BMP180;42191;47.562;9.686;2023-02-05T08:49:46;98654.00;;;7.50
56286;BMP180;42191;47.562;9.686;2023-02-05T08:52:13;98647.00;;;7.50
56286;BMP180;42191;47.562;9.686;2023-02-05T08:54:39;98638.00;;;7.40
56286;BMP180;42191;47.562;9.686;2023-02-05T08:57:06;98635.00;;;7.50
56286;BMP180;42191;47.562;9.686;2023-02-05T08:59:32;98633.00;;;7.60
56286;BMP180;42191;47.562;9.686;2023-02-05T09:01:58;98625.00;;;7.70
56286;BMP180;42191;47.562;9.686;2023-02-05T09:04:25;98636.00;;;7.80
56286;BMP180;42191;47.562;9.686;2023-02-05T09:06:51;98631.00;;;7.80
56286;BMP180;42191;47.562;9.686;2023-02-05T09:09:18;98622.00;;;7.90
56286;BMP180;42191;47.562;9.686;2023-02-05T09:11:45;98633.00;;;8.00
56286;BMP180;42191;47.562;9.686;2023-02-05T09:14:12;98627.00;;;8.10
56286;BMP180;42191;47.562;9.686;2023-02-05T09:16:39;98625.00;;;8.20
56286;BMP180;42191;47.562;9.686;2023-02-05T09:19:06;98631.00;;;8.30
56286;BMP180;42191;47.562;9.686;2023-02-05T09:21:32;98637.00;;;8.40
56286;BMP180;42191;47.562;9.686;2023-02-05T09:23:58;98609.00;;;8.50
56286;BMP180;42191;47.562;9.686;2023-02-05T09:26:25;98614.00;;;8.60
56286;BMP180;42191;47.562;9.686;2023-02-05T09:28:51;98602.00;;;8.70
56286;BMP180;42191;47.562;9.686;2023-02-05T09:31:18;98597.00;;;8.70
56286;BMP180;42191;47.562;9.686;2023-02-05T09:33:45;98591.00;;;8.80
56286;BMP180;42191;47.562;9.686;2023-02-05T09:36:20;98599.00;;;8.80
56286;BMP180;42191;47.562;9.686;2023-02-05T09:38:47;98611.00;;;8.80
56286;BMP180;42191;47.562;9.686;2023-02-05T09:44:05;98588.00;;;8.80
56286;BMP180;42191;47.562;9.686;2023-02-05T09:46:43;98583.00;;;8.80
56286;BMP180;42191;47.562;9.686;2023-02-05T09:49:23;98582.00;;;8.80
56286;BMP180;42191;47.562;9.686;2023-02-05T09:51:58;98575.00;;;8.80
56286;BMP180;42191;47.562;9.686;2023-02-05T09:54:29;98575.00;;;8.90
56286;BMP180;42191;47.562;9.686;2023-02-05T09:57:04;98573.00;;;9.00
56286;BMP180;42191;47.562;9.686;2023-02-05T09:59:32;98560.00;;;9.10
56286;BMP180;42191;47.562;9.686;2023-02-05T10:02:14;98551.00;;;9.10
56286;BMP180;42191;47.562;9.686;2023-02-05T10:04:43;98543.00;;;9.20
56286;BMP180;42191;47.562;9.686;2023-02-05T10:07:30;98536.00;;;9.30
56286;BMP180;42191;47.562;9.686;2023-02-05T10:10:23;98531.00;;;9.50
56286;BMP180;42191;47.562;9.686;2023-02-05T10:16:32;98514.00;;;9.70
56286;BMP180;42191;47.562;9.686;2023-02-05T10:18:48;98500.00;;;9.80
56286;BMP180;42191;47.562;9.686;2023-02-05T10:24:55;98502.00;;;9.90
56286;BMP180;42191;47.562;9.686;2023-02-05T10:38:20;98478.00;;;10.30
56286;BMP180;42191;47.562;9.686;2023-02-05T10:40:48;98477.00;;;10.40
56286;BMP180;42191;47.562;9.686;2023-02-05T10:43:35;98468.00;;;10.50
56286;BMP180;42191;47.562;9.686;2023-02-05T10:46:03;98454.00;;;10.50
56286;BMP180;42191;47.562;9.686;2023-02-05T10:49:00;98449.00;;;10.60
56286;BMP180;42191;47.562;9.686;2023-02-05T10:51:42;98468.00;;;10.60
56286;BMP180;42191;47.562;9.686;2023-02-05T10:54:28;98465.00;;;10.70
56286;BMP180;42191;47.562;9.686;2023-02-05T10:56:56;98458.00;;;10.80
56286;BMP180;42191;47.562;9.686;2023-02-05T10:59:29;98465.00;;;10.80
56286;BMP180;42191;47.562;9.686;2023-02-05T11:01:56;98452.00;;;10.90
56286;BMP180;42191;47.562;9.686;2023-02-05T11:04:45;98459.00;;;10.90
56286;BMP180;42191;47.562;9.686;2023-02-05T11:07:16;98456.00;;;10.90
56286;BMP180;42191;47.562;9.686;2023-02-05T11:09:44;98460.00;;;10.90
56286;BMP180;42191;47.562;9.686;2023-02-05T11:12:29;98450.00;;;10.90
56286;BMP180;42191;47.562;9.686;2023-02-05T11:15:01;98450.00;;;10.80
56286;BMP180;42191;47.562;9.686;2023-02-05T11:17:34;98444.00;;;10.80
56286;BMP180;42191;47.562;9.686;2023-02-05T11:20:20;98451.00;;;10.80
56286;BMP180;42191;47.562;9.686;2023-02-05T11:22:47;98451.00;;;10.80
56286;BMP180;42191;47.562;9.686;2023-02-05T11:25:19;98433.00;;;10.90
56286;BMP180;42191;47.562;9.686;2023-02-05T11:27:54;98433.00;;;11.00
56286;BMP180;42191;47.562;9.686;2023-02-05T11:32:53;98409.00;;;11.20
56286;BMP180;42191;47.562;9.686;2023-02-05T11:37:48;98431.00;;;11.30
56286;BMP180;42191;47.562;9.686;2023-02-05T11:40:27;98422.00;;;11.30
56286;BMP180;42191;47.562;9.686;2023-02-05T11:45:52;98428.00;;;11.50
56286;BMP180;42191;47.562;9.686;2023-02-05T11:51:00;98428.00;;;11.60
56286;BMP180;42191;47.562;9.686;2023-02-05T11:53:26;98432.00;;;11.70
56286;BMP180;42191;47.562;9.686;2023-02-05T11:55:58;98419.00;;;11.70
56286;BMP180;42191;47.562;9.686;2023-02-05T11:58:30;98420.00;;;11.80
56286;BMP180;42191;47.562;9.686;2023-02-05T12:01:19;98431.00;;;11.80
56286;BMP180;42191;47.562;9.686;2023-02-05T12:03:57;98439.00;;;11.90
56286;BMP180;42191;47.562;9.686;2023-02-05T12:06:36;98423.00;;;12.00
56286;BMP180;42191;47.562;9.686;2023-02-05T12:09:03;98423.00;;;12.10
56286;BMP180;42191;47.562;9.686;2023-02-05T12:11:49;98431.00;;;12.20
56286;BMP180;42191;47.562;9.686;2023-02-05T12:14:48;98432.00;;;12.20
56286;BMP180;42191;47.562;9.686;2023-02-05T12:17:48;98431.00;;;12.20
56286;BMP180;42191;47.562;9.686;2023-02-05T12:20:36;98436.00;;;12.20
56286;BMP180;42191;47.562;9.686;2023-02-05T12:26:29;98425.00;;;12.20
56286;BMP180;42191;47.562;9.686;2023-02-05T12:34:56;98417.00;;;12.30
56286;BMP180;42191;47.562;9.686;2023-02-05T12:37:36;98425.00;;;12.30
56286;BMP180;42191;47.562;9.686;2023-02-05T12:40:27;98418.00;;;12.40
56286;BMP180;42191;47.562;9.686;2023-02-05T12:42:59;98418.00;;;12.40
56286;BMP180;42191;47.562;9.686;2023-02-05T12:51:19;98427.00;;;12.40
56286;BMP180;42191;47.562;9.686;2023-02-05T12:56:48;98416.00;;;12.10
56286;BMP180;42191;47.562;9.686;2023-02-05T12:59:27;98429.00;;;12.00
56286;BMP180;42191;47.562;9.686;2023-02-05T13:02:16;98421.00;;;11.90
56286;BMP180;42191;47.562;9.686;2023-02-05T13:04:59;98422.00;;;11.80
56286;BMP180;42191;47.562;9.686;2023-02-05T13:07:44;98421.00;;;11.60
56286;BMP180;42191;47.562;9.686;2023-02-05T13:10:24;98420.00;;;11.40
56286;BMP180;42191;47.562;9.686;2023-02-05T13:12:58;98417.00;;;11.30
56286;BMP180;42191;47.562;9.686;2023-02-05T13:15:35;98419.00;;;11.30
56286;BMP180;42191;47.562;9.686;2023-02-05T13:18:22;98417.00;;;11.20
56286;BMP180;42191;47.562;9.686;2023-02-05T13:21:02;98413.00;;;11.10
56286;BMP180;42191;47.562;9.686;2023-02-05T13:23:50;98406.00;;;11.00
56286;BMP180;42191;47.562;9.686;2023-02-05T13:26:40;98395.00;;;10.90
56286;BMP180;42191;47.562;9.686;2023-02-05T13:29:33;98404.00;;;10.80
56286;BMP180;42191;47.562;9.686;2023-02-05T13:32:05;98387.00;;;10.80
56286;BMP180;42191;47.562;9.686;2023-02-05T13:34:36;98388.00;;;10.70
56286;BMP180;42191;47.562;9.686;2023-02-05T13:56:44;98359.00;;;10.40
56286;BMP180;42191;47.562;9.686;2023-02-05T13:59:35;98357.00;;;10.30
56286;BMP180;42191;47.562;9.686;2023-02-05T14:02:03;98352.00;;;10.20
56286;BMP180;42191;47.562;9.686;2023-02-05T14:04:45;98351.00;;;10.10
56286;BMP180;42191;47.562;9.686;2023-02-05T14:07:34;98348.00;;;10.00
56286;BMP180;42191;47.562;9.686;2023-02-05T14:10:02;98345.00;;;9.90
56286;BMP180;42191;47.562;9.686;2023-02-05T14:12:31;98342.00;;;9.80
56286;BMP180;42191;47.562;9.686;2023-02-05T14:20:35;98351.00;;;9.50
56286;BMP180;42191;47.562;9.686;2023-02-05T14:23:11;98341.00;;;9.40
56286;BMP180;42191;47.562;9.686;2023-02-05T14:39:19;98328.00;;;8.90
56286;BMP180;42191;47.562;9.686;2023-02-05T14:41:48;98328.00;;;8.80
56286;BMP180;42191;47.562;9.686;2023-02-05T14:46:59;98322.00;;;8.70
56286;BMP180;42191;47.562;9.686;2023-02-05T14:49:38;98314.00;;;8.60
56286;BMP180;42191;47.562;9.686;2023-02-05T14:55:28;98322.00;;;8.60
56286;BMP180;42191;47.562;9.686;2023-02-05T14:58:05;98323.00;;;8.50
56286;BMP180;42191;47.562;9.686;2023-02-05T15:00:41;98313.00;;;8.50
56286;BMP180;42191;47.562;9.686;2023-02-05T15:03:22;98317.00;;;8.50
56286;BMP180;42191;47.562;9.686;2023-02-05T15:05:53;98312.00;;;8.50
56286;BMP180;42191;47.562;9.686;2023-02-05T15:08:41;98315.00;;;8.50
56286;BMP180;42191;47.562;9.686;2023-02-05T15:11:32;98313.00;;;8.40
56286;BMP180;42191;47.562;9.686;2023-02-05T15:16:46;98316.00;;;8.50
56286;BMP180;42191;47.562;9.686;2023-02-05T15:19:14;98303.00;;;8.50
56286;BMP180;42191;47.562;9.686;2023-02-05T15:21:49;98307.00;;;8.50
56286;BMP180;42191;47.562;9.686;2023-02-05T15:24:20;98310.00;;;8.50
56286;BMP180;42191;47.562;9.686;2023-02-05T15:27:00;98314.00;;;8.50
56286;BMP180;42191;47.562;9.686;2023-02-05T15:29:36;98301.00;;;8.50
56286;BMP180;42191;47.562;9.686;2023-02-05T15:34:44;98301.00;;;8.50
56286;BMP180;42191;47.562;9.686;2023-02-05T15:37:25;98297.00;;;8.50
56286;BMP180;42191;47.562;9.686;2023-02-05T15:39:55;98304.00;;;8.50
56286;BMP180;42191;47.562;9.686;2023-02-05T15:42:36;98303.00;;;8.50
56286;BMP180;42191;47.562;9.686;2023-02-05T15:45:28;98307.00;;;8.40
56286;BMP180;42191;47.562;9.686;2023-02-05T15:48:01;98296.00;;;8.40
56286;BMP180;42191;47.562;9.686;2023-02-05T15:50:29;98296.00;;;8.30
56286;BMP180;42191;47.562;9.686;2023-02-05T15:52:56;98290.00;;;8.30
56286;BMP180;42191;47.562;9.686;2023-02-05T15:55:23;98296.00;;;8.30
56286;BMP180;42191;47.562;9.686;2023-02-05T15:57:56;98293.00;;;8.30
56286;BMP180;42191;47.562;9.686;2023-02-05T16:00:26;98293.00;;;8.20
56286;BMP180;42191;47.562;9.686;2023-02-05T16:05:22;98286.00;;;8.10
56286;BMP180;42191;47.562;9.686;2023-02-05T16:07:49;98279.00;;;8.10
56286;BMP180;42191;47.562;9.686;2023-02-05T16:10:31;98294.00;;;8.10
56286;BMP180;42191;47.562;9.686;2023-02-05T16:13:11;98288.00;;;8.00
56286;BMP180;42191;47.562;9.686;2023-02-05T16:16:03;98289.00;;;8.00
56286;BMP180;42191;47.562;9.686;2023-02-05T16:21:23;98297.00;;;7.90
56286;BMP180;42191;47.562;9.686;2023-02-05T16:23:59;98297.00;;;7.90
56286;BMP180;42191;47.562;9.686;2023-02-05T16:26:30;98309.00;;;7.90
56286;BMP180;42191;47.562;9.686;2023-02-05T16:29:03;98300.00;;;7.90
56286;BMP180;42191;47.562;9.686;2023-02-05T16:31:30;98301.00;;;7.90
56286;BMP180;42191;47.562;9.686;2023-02-05T16:36:27;98289.00;;;7.90
56286;BMP180;42191;47.562;9.686;2023-02-05T16:38:58;98299.00;;;7.90
56286;BMP180;42191;47.562;9.686;2023-02-05T16:41:37;98296.00;;;7.90
56286;BMP180;42191;47.562;9.686;2023-02-05T16:44:08;98297.00;;;7.90
56286;BMP180;42191;47.562;9.686;2023-02-05T16:47:05;98303.00;;;7.90
56286;BMP180;42191;47.562;9.686;2023-02-05T16:49:34;98302.00;;;7.90
56286;BMP180;42191;47.562;9.686;2023-02-05T16:52:00;98304.00;;;7.90
56286;BMP180;42191;47.562;9.686;2023-02-05T16:54:29;98310.00;;;7.90
56286;BMP180;42191;47.562;9.686;2023-02-05T17:02:24;98319.00;;;7.80
56286;BMP180;42191;47.562;9.686;2023-02-05T17:04:53;98318.00;;;7.80